Campbellville (Bellshill Airpark)

CA-0845 · Ontario, Kanada

METAR-Geschichte CA-0845 · Campbellville (Bellshill Airpark)

Unten siehst du die METARs der letzten paar Tage. Wähle ein Jahr, um ältere METARs ab dem Jahr 2007 zu durchsuchen.

12. April 2024

Uhrzeit Code Wetter Temp. Sichtweite Wolkendecke Wind METAR/SPECI
17:00
M
6 °C 9 mi 1.700 ft 280° 280° 18 - 27 kt METAR CYKF 122100Z AUTO 28018G27KT 9SM -RA BKN017 OVC026 06/04 A2920 RMK SLP892
16:00
M
7 °C 9 mi 1.400 ft 270° 270° 17 - 31 kt METAR CYKF 122000Z AUTO 27017G31KT 9SM -RA OVC014 07/05 A2917 RMK SLP882
15:00
M
7 °C 9 mi 1.400 ft 270° 270° 21 - 32 kt METAR CYKF 121900Z AUTO 27021G32KT 9SM -RA OVC014 07/05 A2916 RMK SLP878
14:43
M
7 °C 9 mi 1.400 ft 270° 270° 22 - 30 kt METAR CYKF 121843Z AUTO 27022G30KT 9SM -RA OVC014 07/05 A2915 RMK SLP878 DENSITY ALT 1300FT
14:00
M
7 °C 9 mi 1.400 ft 270° 270° 20 - 33 kt METAR CYKF 121800Z AUTO 27020G33KT 9SM OVC014 07/05 A2915 RMK SLP873 DENSITY ALT 1300FT
13:00
M
7 °C 9 mi 1.400 ft 260° 260° 20 - 30 kt METAR CYKF 121700Z AUTO 26020G30KT 9SM OVC014 07/06 A2914 RMK SLP871 DENSITY ALT 1300FT
12:09
M
7 °C 9 mi 1.200 ft 260° 260° 19 - 31 kt METAR CYKF 121609Z AUTO 26019G31KT 9SM OVC012 07/05 A2913 RMK SLP872 DENSITY ALT 1300FT
11:00
M
6 °C 9 mi 1.200 ft 260° 260° 21 - 28 kt METAR CYKF 121500Z AUTO 26021G28KT 9SM -RA OVC012 06/05 A2913 RMK SLP867
10:00
M
6 °C 9 mi 1.000 ft 260° 260° 17 - 23 kt METAR CYKF 121400Z AUTO 26017G23KT 9SM -RA OVC010 06/05 A2911 RMK SLP860
09:28
M
6 °C 9 mi 1.000 ft 250° 250° 18 kt METAR CYKF 121328Z AUTO 25018KT 9SM -RA OVC010 06/05 A2910 RMK SLP860
09:15
I
6 °C 9 mi 800 ft 250° 250° 14 - 21 kt METAR CYKF 121315Z AUTO 25014G21KT 9SM -RA OVC008 06/05 A2909 RMK SLP858
09:00
I
6 °C 9 mi 800 ft 250° 250° 14 - 19 kt METAR CYKF 121300Z AUTO 25014G19KT 9SM OVC008 06/05 A2908 RMK SLP853
08:44
I
6 °C 6 mi 800 ft 260° 260° 13 - 21 kt METAR CYKF 121244Z AUTO 26013G21KT 6SM BR OVC008 06/05 A2908 RMK SLP855
08:32
I
6 °C 5 mi 600 ft 240° 240° 14 - 20 kt METAR CYKF 121232Z AUTO 24014G20KT 5SM BR OVC006 06/06 A2908 RMK SLP853
08:24
I
6 °C 6 mi 600 ft 240° 240° 12 - 20 kt METAR CYKF 121224Z AUTO 24012G20KT 6SM BR OVC006 06/05 A2908 RMK SLP850
08:00
L
6 °C 5 mi 400 ft 240° 240° 13 - 20 kt METAR CYKF 121200Z AUTO 24013G20KT 5SM BR OVC004 06/06 A2907 RMK SLP848
08:02
L
6 °C 6 mi 400 ft 250° 250° 13 - 20 kt METAR CYKF 121202Z AUTO 25013G20KT 6SM BR OVC004 06/06 A2907 RMK SLP851
07:55
L
6 °C 5 mi 400 ft 240° 240° 16 - 21 kt METAR CYKF 121155Z AUTO 24016G21KT 5SM BR OVC004 06/06 A2907 RMK SLP850
07:22
L
6 °C 9 mi 400 ft 230° 230° 10 - 19 kt METAR CYKF 121122Z AUTO 23010G19KT 9SM OVC004 06/06 A2905 RMK SLP845 DENSITY ALT 1300FT
07:09
L
7 °C 8 mi 400 ft 230° 230° 14 kt METAR CYKF 121109Z AUTO 23014KT 8SM -RA OVC004 07/07 A2905 RMK PRESRR SLP842 DENSITY ALT 1400FT
07:03
L
7 °C 3 mi 400 ft 220° 220° 13 kt METAR CYKF 121103Z AUTO 22013KT 3SM -RA BR OVC004 07/07 A2904 RMK SLP840 DENSITY ALT 1500FT
06:56
L
8 °C 2½ mi 400 ft 230° 230° 12 kt METAR CYKF 121056Z AUTO 23012KT 2 1/2SM -RA BR OVC004 08/08 A2904 RMK PCPN 1.5MM PAST HR SLP837 DENSITY ALT 1600FT
06:42
L
11 °C 6 mi 200 ft 240° 240° 11 - 18 kt METAR CYKF 121042Z AUTO 24011G18KT 6SM -RA BR OVC002 11/11 A2903 RMK PCPN 1.2MM PAST HR SLP833 DENSITY ALT 1900FT
06:39
L
11 °C 4 mi 200 ft 230° 230° 14 kt METAR CYKF 121039Z AUTO 23014KT 4SM -RA BR OVC002 11/11 A2903 RMK PCPN 1.2MM PAST HR SLP832 DENSITY ALT 1900FT
06:21
L
12 °C 1¾ mi 200 ft 200° 200° 4 kt METAR CYKF 121021Z AUTO 20004KT 1 3/4SM -RA BR OVC002 12/12 A2902 RMK PCPN 0.8MM PAST HR SLP829 DENSITY ALT 2100FT
06:15
L
12 °C 2½ mi 400 ft 190° 190° 5 kt METAR CYKF 121015Z AUTO 19005KT 2 1/2SM -RA BR OVC004 12/12 A2902 RMK PCPN 0.5MM PAST HR SLP830 DENSITY ALT 2100FT
06:00
L
12 °C 4 mi 400 ft 190° 190° 4 kt METAR CYKF 121000Z AUTO 19004KT 4SM -RA BR OVC004 12/12 A2903 RMK PCPN 1.8MM PAST HR SLP831 DENSITY ALT 2100FT
05:00
L
13 °C 2¼ mi 400 ft 190° 190° 3 kt METAR CYKF 120900Z AUTO 19003KT 2 1/4SM -RA BR OVC004 13/13 A2905 RMK PCPN 3.5MM PAST HR SLP839 DENSITY ALT 2100FT
05:05
L
13 °C 3 mi 400 ft 190° 190° 4 kt METAR CYKF 120905Z AUTO 19004KT 3SM -RA BR OVC004 13/13 A2905 RMK SLP837 DENSITY ALT 2100FT
04:52
L
13 °C 2 mi 400 ft Var Var 2 kt METAR CYKF 120852Z AUTO VRB02KT 2SM RA BR OVC004 13/13 A2905 RMK PCPN 3.0MM PAST HR SLP839 DENSITY ALT 2100FT
04:42
L
13 °C 1¾ mi 400 ft 160° 160° 3 kt METAR CYKF 120842Z AUTO 16003KT 1 3/4SM -RA BR OVC004 13/13 A2906 RMK PCPN 2.0MM PAST HR SLP841 DENSITY ALT 2100FT
04:26
L
13 °C 2¼ mi 400 ft 140° 140° 5 kt METAR CYKF 120826Z AUTO 14005KT 2 1/4SM -RA BR OVC004 13/13 A2906 RMK PCPN 1.0MM PAST HR SLP843 DENSITY ALT 2100FT
04:15
L
13 °C 1¾ mi 200 ft 140° 140° 5 kt METAR CYKF 120815Z AUTO 14005KT 1 3/4SM -RA BR OVC002 13/13 A2907 RMK PCPN 0.5MM PAST HR SLP844 DENSITY ALT 2100FT
04:11
L
13 °C 2½ mi 200 ft 130° 130° 5 kt METAR CYKF 120811Z AUTO 13005KT 2 1/2SM -RA BR OVC002 13/13 A2907 RMK SLP844 DENSITY ALT 2100FT
04:00
L
13 °C 3 mi 200 ft 130° 130° 6 kt METAR CYKF 120800Z AUTO 13006KT 3SM -RA BR OVC002 13/13 A2907 RMK PCPN 0.5MM PAST HR SLP847 DENSITY ALT 2100FT
03:00
L
13 °C 3 mi 200 ft 110° 110° 6 kt METAR CYKF 120700Z AUTO 11006KT 3SM -RA BR OVC002 13/13 A2911 RMK SLP861 DENSITY ALT 2000FT
02:56
L
13 °C 3 mi 200 ft 120° 120° 7 kt METAR CYKF 120656Z AUTO 12007KT 3SM -RA BR OVC002 13/13 A2912 RMK SLP861 DENSITY ALT 2000FT
02:29
L
13 °C 5 mi 400 ft 100° 100° 8 kt METAR CYKF 120629Z AUTO 10008KT 5SM -RA BR BKN004 OVC008 13/13 A2913 RMK SLP865 DENSITY ALT 2100FT
02:00
I
14 °C 9 mi 600 ft 120° 120° 7 kt METAR CYKF 120600Z AUTO 12007KT 9SM -RA BKN006 OVC012 14/14 A2915 RMK SLP872 DENSITY ALT 2100FT
02:03
L
14 °C 9 mi 400 ft 120° 120° 7 kt METAR CYKF 120603Z AUTO 12007KT 9SM -RA BKN004 OVC011 14/14 A2915 RMK SLP871 DENSITY ALT 2100FT
01:41
I
14 °C 6 mi 500 ft 130° 130° 7 kt METAR CYKF 120541Z AUTO 13007KT 6SM -RA BR BKN005 OVC010 14/14 A2916 RMK SLP876 DENSITY ALT 2100FT
01:10
I
14 °C 9 mi 500 ft 120° 120° 7 kt METAR CYKF 120510Z AUTO 12007KT 9SM -RA BKN005 OVC018 14/14 A2918 RMK SLP881 DENSITY ALT 2100FT
01:00
I
14 °C 9 mi 500 ft 130° 130° 7 kt METAR CYKF 120500Z AUTO 13007KT 9SM BKN005 OVC021 14/14 A2918 RMK SLP883 DENSITY ALT 2100FT
00:15
I
14 °C 9 mi 500 ft 120° 120° 8 kt METAR CYKF 120415Z AUTO 12008KT 9SM OVC005 14/14 A2920 RMK SLP891 DENSITY ALT 2000FT
00:00
I
13 °C 5 mi 500 ft 100° 100° 8 kt METAR CYKF 120400Z AUTO 10008KT 5SM -RA BR OVC005 13/13 A2922 RMK PCPN 4.0MM PAST HR SLP896 DENSITY ALT 2000FT
00:02
I
14 °C 6 mi 500 ft 100° 100° 8 kt METAR CYKF 120402Z AUTO 10008KT 6SM -RA BR OVC005 14/14 A2921 RMK SLP894 DENSITY ALT 2000FT

11. April 2024

Uhrzeit Code Wetter Temp. Sichtweite Wolkendecke Wind METAR/SPECI
23:52
I
13 °C 3 mi 500 ft 100° 100° 9 kt METAR CYKF 120352Z AUTO 10009KT 3SM -RA BR BKN005 BKN008 OVC013 13/13 A2922 RMK PRESFR PCPN 4.0MM PAST HR SLP896 DENSITY ALT 2000FT
23:24
L
14 °C 1¾ mi 300 ft 110° 110° 12 kt METAR CYKF 120324Z AUTO 11012KT 1 3/4SM RA BR BKN003 14/14 A2924 RMK PCPN 1.2MM PAST HR SLP904 DENSITY ALT 2000FT
23:18
L
14 °C 4 mi 300 ft 110° 110° 10 - 15 kt METAR CYKF 120318Z AUTO 11010G15KT 4SM -RA BR OVC003 14/14 A2925 RMK SLP906 DENSITY ALT 2000FT
23:14
L
14 °C 7 mi 300 ft 110° 110° 11 - 17 kt METAR CYKF 120314Z AUTO 11011G17KT 7SM -RA OVC003 14/14 A2925 RMK SLP907 DENSITY ALT 2000FT
23:00
L
14 °C 9 mi 300 ft 110° 110° 10 - 16 kt METAR CYKF 120300Z AUTO 11010G16KT 9SM OVC003 14/14 A2926 RMK SLP912 DENSITY ALT 2000FT
22:16
L
13 °C 8 mi 300 ft 110° 110° 8 kt METAR CYKF 120216Z AUTO 11008KT 8SM BKN003 OVC013 13/13 A2929 RMK SLP919 DENSITY ALT 1900FT
22:09
L
13 °C 6 mi 300 ft 120° 120° 9 - 15 kt METAR CYKF 120209Z AUTO 12009G15KT 6SM -RA BR BKN003 OVC013 13/13 A2929 RMK SLP921 DENSITY ALT 1900FT
22:05
L
13 °C 3 mi 300 ft 120° 120° 10 - 16 kt METAR CYKF 120205Z AUTO 12010G16KT 3SM -RA BR BKN003 OVC013 13/13 A2929 RMK SLP922 DENSITY ALT 1900FT
21:56
L
13 °C 1½ mi 300 ft 100° 100° 13 kt METAR CYKF 120156Z AUTO 10013KT 1 1/2SM -RA BR OVC003 13/13 A2929 RMK VIS VRB 1 1/4-3 PCPN 1.0MM PAST HR SLP920 DENSITY ALT 1900FT
21:29
L
13 °C 5 mi 300 ft 110° 110° 11 kt METAR CYKF 120129Z AUTO 11011KT 5SM -RA BR OVC003 13/13 A2930 RMK SLP925 DENSITY ALT 1900FT
21:21
L
13 °C 6 mi 300 ft 120° 120° 9 kt METAR CYKF 120121Z AUTO 12009KT 6SM -RA BR OVC003 13/13 A2931 RMK SLP928 DENSITY ALT 1800FT
21:11
L
13 °C 3 mi 300 ft 120° 120° 9 kt METAR CYKF 120111Z AUTO 12009KT 3SM -RA BR OVC003 13/13 A2932 RMK SLP929 DENSITY ALT 1800FT
21:00
L
13 °C 2½ mi 300 ft 110° 110° 10 kt METAR CYKF 120100Z AUTO 11010KT 2 1/2SM -RA BR OVC003 13/13 A2932 RMK PCPN 0.5MM PAST HR SLP932 DENSITY ALT 1800FT
20:52
L
13 °C 2 mi 300 ft 100° 100° 8 kt METAR CYKF 120052Z AUTO 10008KT 2SM -RA BR OVC003 13/13 A2933 RMK PCPN 0.5MM PAST HR SLP932 DENSITY ALT 1800FT
20:30
L
13 °C 1¾ mi 300 ft 110° 110° 9 kt METAR CYKF 120030Z AUTO 11009KT 1 3/4SM -RA BR OVC003 13/13 A2934 RMK SLP938 DENSITY ALT 1800FT
20:26
L
13 °C 2¼ mi 300 ft 110° 110° 9 kt METAR CYKF 120026Z AUTO 11009KT 2 1/4SM -RA BR OVC003 13/13 A2934 RMK SLP938 DENSITY ALT 1800FT
20:00
L
13 °C 4 mi 300 ft 100° 100° 9 kt METAR CYKF 120000Z AUTO 10009KT 4SM BR OVC003 13/13 A2935 RMK SLP943 DENSITY ALT 1700FT
19:00
L
12 °C 5 mi 300 ft 100° 100° 8 kt METAR CYKF 112300Z AUTO 10008KT 5SM BR OVC003 12/12 A2939 RMK PCPN 0.5MM PAST HR SLP956 DENSITY ALT 1700FT
18:57
L
12 °C 5 mi 300 ft 100° 100° 7 kt METAR CYKF 112257Z AUTO 10007KT 5SM BR OVC003 12/12 A2939 RMK PCPN 0.5MM PAST HR SLP955 DENSITY ALT 1700FT
18:22
I
12 °C 6 mi 500 ft 100° 100° 7 kt METAR CYKF 112222Z AUTO 10007KT 6SM BR OVC005 12/12 A2940 RMK PCPN 0.5MM PAST HR SLP960 DENSITY ALT 1600FT
18:17
I
12 °C 6 mi 500 ft 100° 100° 8 kt METAR CYKF 112217Z AUTO 10008KT 6SM -RA BR OVC005 12/12 A2940 RMK PCPN 0.5MM PAST HR SLP960 DENSITY ALT 1600FT
18:00
I
12 °C 6 mi 500 ft 100° 100° 8 kt METAR CYKF 112200Z AUTO 10008KT 6SM -RA BR OVC005 12/12 A2941 RMK PCPN 0.5MM PAST HR SLP965 DENSITY ALT 1600FT
18:02
I
12 °C 5 mi 500 ft 110° 110° 9 kt METAR CYKF 112202Z AUTO 11009KT 5SM -RA BR OVC005 12/12 A2941 RMK SLP963 DENSITY ALT 1600FT
17:16
I
12 °C 6 mi 500 ft 100° 100° 10 kt METAR CYKF 112116Z AUTO 10010KT 6SM -RA BR BKN005 BKN012 OVC026 12/12 A2944 RMK SLP972 DENSITY ALT 1600FT
17:00
I
12 °C 4 mi 500 ft 090° 090° 7 kt METAR CYKF 112100Z AUTO 09007KT 4SM -RA BR BKN005 12/12 A2945 RMK PCPN 1.5MM PAST HR SLP977 DENSITY ALT 1500FT
16:00
I
11 °C 5 mi 500 ft 100° 100° 5 kt METAR CYKF 112000Z AUTO 10005KT 5SM -RA BR OVC005 11/11 A2948 RMK PCPN 1.5MM PAST HR SLP988 DENSITY ALT 1400FT
15:41
I
11 °C 3 mi 500 ft 100° 100° 4 kt METAR CYKF 111941Z AUTO 10004KT 3SM -RA BR OVC005 11/11 A2949 RMK PCPN 1.0MM PAST HR SLP990 DENSITY ALT 1400FT
15:33
I
11 °C 2 mi 500 ft 090° 090° 5 kt METAR CYKF 111933Z AUTO 09005KT 2SM -RA BR OVC005 11/11 A2949 RMK PCPN 0.8MM PAST HR SLP991 DENSITY ALT 1400FT
15:16
I
11 °C 1¾ mi 500 ft 090° 090° 8 kt METAR CYKF 111916Z AUTO 09008KT 1 3/4SM -RA BR OVC005 11/11 A2950 RMK SLP995 DENSITY ALT 1300FT
15:11
I
11 °C 3 mi 500 ft 100° 100° 7 kt METAR CYKF 111911Z AUTO 10007KT 3SM -RA BR OVC005 11/11 A2950 RMK SLP995 DENSITY ALT 1300FT
15:09
I
11 °C 5 mi 500 ft 100° 100° 8 kt METAR CYKF 111909Z AUTO 10008KT 5SM BR OVC005 11/11 A2951 RMK SLP997 DENSITY ALT 1300FT
14:18
L
11 °C 9 mi 300 ft 080° 080° 9 - 15 kt METAR CYKF 111818Z AUTO 08009G15KT 9SM BKN003 OVC009 11/11 A2952 RMK SLP002 DENSITY ALT 1300FT
14:12
L
11 °C 6 mi 300 ft 090° 090° 10 - 16 kt METAR CYKF 111812Z AUTO 09010G16KT 6SM -RA BR BKN003 OVC009 11/11 A2953 RMK SLP003 DENSITY ALT 1300FT
14:00
L
10 °C 3 mi 300 ft 080° 080° 10 kt METAR CYKF 111800Z AUTO 08010KT 3SM -RA BR BKN003 OVC009 10/10 A2953 RMK PCPN 0.8MM PAST HR SLP004 DENSITY ALT 1300FT
13:58
L
10 °C 3 mi 300 ft 080° 080° 10 - 15 kt METAR CYKF 111758Z AUTO 08010G15KT 3SM -RA BR BKN003 OVC009 10/10 A2953 RMK PCPN 0.8MM PAST HR SLP005
13:27
L
11 °C 1¾ mi 300 ft 080° 080° 12 kt METAR CYKF 111727Z AUTO 08012KT 1 3/4SM -RA BR OVC003 11/11 A2955 RMK SLP010
13:20
L
11 °C 2½ mi 300 ft 080° 080° 12 kt METAR CYKF 111720Z AUTO 08012KT 2 1/2SM -RA BR OVC003 11/11 A2955 RMK SLP012
13:19
L
11 °C 2½ mi 300 ft 080° 080° 12 kt METAR CYKF 111719Z AUTO 08012KT 2 1/2SM BR OVC003 11/11 A2955 RMK SLP012
13:13
L
11 °C 5 mi 300 ft 080° 080° 11 - 16 kt METAR CYKF 111713Z AUTO 08011G16KT 5SM BR OVC003 11/11 A2956 RMK SLP013
13:00
L
10 °C 7 mi 300 ft 080° 080° 12 kt METAR CYKF 111700Z AUTO 08012KT 7SM OVC003 10/10 A2957 RMK SLP017
12:41
L
10 °C 8 mi 300 ft 070° 070° 14 kt METAR CYKF 111641Z AUTO 07014KT 8SM OVC003 10/10 A2957 RMK SLP020
12:09
L
10 °C 9 mi 300 ft 080° 080° 11 - 16 kt METAR CYKF 111609Z AUTO 08011G16KT 9SM -RA OVC003 10/10 A2961 RMK SLP031
11:45
L
9 °C 6 mi 300 ft 070° 070° 14 - 19 kt METAR CYKF 111545Z AUTO 07014G19KT 6SM BR OVC003 09/09 A2962 RMK SLP036
11:30
L
9 °C 5 mi 300 ft 080° 080° 12 - 18 kt METAR CYKF 111530Z AUTO 08012G18KT 5SM BR OVC003 09/09 A2963 RMK SLP038
11:22
I
9 °C 6 mi 500 ft 080° 080° 13 - 18 kt METAR CYKF 111522Z AUTO 08013G18KT 6SM BR OVC005 09/09 A2963 RMK PRESFR SLP040
11:16
I
9 °C 6 mi 500 ft 080° 080° 14 - 19 kt METAR CYKF 111516Z AUTO 08014G19KT 6SM -RA BR OVC005 09/09 A2964 RMK PRESFR SLP043
11:06
I
9 °C 5 mi 500 ft 080° 080° 15 kt METAR CYKF 111506Z AUTO 08015KT 5SM BR OVC005 09/09 A2965 RMK SLP046
11:08
I
9 °C 5 mi 500 ft 080° 080° 16 kt METAR CYKF 111508Z AUTO 08016KT 5SM -RA BR OVC005 09/09 A2964 RMK SLP045
10:20
I
8 °C 6 mi 500 ft 080° 080° 13 - 18 kt METAR CYKF 111420Z AUTO 08013G18KT 6SM -RA BR OVC005 08/08 A2967 RMK SLP053
10:10
I
8 °C 5 mi 500 ft 070° 070° 14 kt METAR CYKF 111410Z AUTO 07014KT 5SM -RA BR OVC005 08/08 A2967 RMK SLP053
10:00
I
8 °C 8 mi 500 ft 080° 080° 12 - 19 kt METAR CYKF 111400Z AUTO 08012G19KT 8SM -RA OVC005 08/08 A2967 RMK SLP055
09:00
I
8 °C 9 mi 500 ft 070° 070° 18 - 23 kt METAR CYKF 111300Z AUTO 07018G23KT 9SM -RA OVC005 08/08 A2971 RMK PCPN 0.5MM PAST HR SLP065
08:37
I
8 °C 9 mi 500 ft 090° 090° 15 - 21 kt METAR CYKF 111237Z AUTO 09015G21KT 9SM -RA OVC005 08/08 A2973 RMK PCPN 0.5MM PAST HR SLP074
08:00
I
8 °C 9 mi 700 ft 070° 070° 14 - 19 kt METAR CYKF 111200Z AUTO 07014G19KT 9SM -RA OVC007 08/07 A2972 RMK PCPN 1.0MM PAST HR SLP068
07:14
I
7 °C 6 mi 900 ft 070° 070° 14 - 19 kt METAR CYKF 111114Z AUTO 07014G19KT 6SM -RA BR BKN009 OVC045 07/07 A2974 RMK PCPN 0.5MM PAST HR SLP078
07:00
I
7 °C 3 mi 900 ft 080° 080° 15 kt METAR CYKF 111100Z AUTO 08015KT 3SM -RA BR BKN009 OVC021 07/07 A2974 RMK PRESFR PCPN 5.0MM PAST HR SLP077
06:40
I
7 °C 3 mi 900 ft 080° 080° 12 kt METAR CYKF 111040Z AUTO 08012KT 3SM RA BR BKN009 BKN023 OVC036 07/07 A2976 RMK PCPN 4.0MM PAST HR SLP086
06:35
I
7 °C 3 mi 2.300 ft 090° 090° 10 - 15 kt METAR CYKF 111035Z AUTO 09010G15KT 3SM RA BR SCT009 BKN023 BKN031 OVC076 07/07 A2976 RMK PCPN 3.8MM PAST HR SLP084
06:24
M
7 °C 4 mi 3.800 ft 080° 080° 10 - 19 kt METAR CYKF 111024Z AUTO 08010G19KT 4SM -RA BR FEW009 SCT026 BKN038 OVC078 07/07 A2976 RMK PCPN 2.2MM PAST HR SLP086
06:00
M
7 °C 4 mi 2.800 ft 070° 070° 11 kt METAR CYKF 111000Z AUTO 07011KT 4SM -RA BR BKN028 OVC033 07/07 A2977 RMK PCPN 2.8MM PAST HR SLP085
05:32
V
7 °C 5 mi 3.500 ft 060° 060° 12 kt METAR CYKF 110932Z AUTO 06012KT 5SM -RA BR BKN035 OVC044 07/07 A2978 RMK PCPN 1.2MM PAST HR SLP092
05:22
V
7 °C 6 mi 3.700 ft 060° 060° 12 kt METAR CYKF 110922Z AUTO 06012KT 6SM -RA BR BKN037 OVC046 07/06 A2979 RMK PCPN 0.8MM PAST HR SLP095
05:00
V
7 °C 5 mi 4.500 ft 070° 070° 12 kt METAR CYKF 110900Z AUTO 07012KT 5SM -RA BR OVC045 07/06 A2981 RMK PCPN 2.8MM PAST HR SLP098
04:00
V
8 °C 7 mi 7.800 ft 090° 090° 10 - 15 kt METAR CYKF 110800Z AUTO 09010G15KT 7SM -RA SCT060 OVC078 08/06 A2984 RMK PCPN 1.0MM PAST HR SLP109
04:05
V
8 °C 5 mi 7.900 ft 090° 090° 9 - 15 kt METAR CYKF 110805Z AUTO 09009G15KT 5SM -RA BR SCT055 OVC079 08/06 A2984 RMK SLP111
03:00
V
10 °C 9 mi 8.100 ft 110° 110° 10 - 15 kt METAR CYKF 110700Z AUTO 11010G15KT 9SM -RA OVC081 10/04 A2986 RMK SLP115
02:19
V
11 °C 9 mi 9.800 ft 090° 090° 8 kt METAR CYKF 110619Z AUTO 09008KT 9SM -RA FEW071 OVC098 11/03 A2988 RMK SLP123
02:00
V
10 °C 9 mi 11.000 ft 070° 070° 7 kt METAR CYKF 110600Z AUTO 07007KT 9SM SCT066 SCT090 OVC110 10/03 A2989 RMK SLP125
01:00
V
10 °C 9 mi 14.000 ft 070° 070° 7 kt METAR CYKF 110500Z AUTO 07007KT 9SM OVC140 10/03 A2991 RMK SLP131
00:00
V
10 °C 9 mi 19.000 ft 070° 070° 8 kt METAR CYKF 110400Z AUTO 07008KT 9SM SCT160 BKN190 OVC210 10/03 A2993 RMK SLP140

10. April 2024

Uhrzeit Code Wetter Temp. Sichtweite Wolkendecke Wind METAR/SPECI
23:00
V
10 °C 9 mi 17.000 ft 070° 070° 8 kt METAR CYKF 110300Z AUTO 07008KT 9SM BKN170 OVC190 10/04 A2994 RMK SLP144
22:00
V
10 °C 9 mi 16.000 ft 060° 060° 7 kt METAR CYKF 110200Z AUTO 06007KT 9SM BKN160 BKN190 OVC210 10/05 A2995 RMK SLP147
21:00
V
11 °C 9 mi 21.000 ft 020° 020° 3 kt METAR CYKF 110100Z AUTO 02003KT 9SM SCT180 BKN210 11/03 A2995 RMK SLP149
20:00
V
14 °C 9 mi - 010° 010° 3 kt METAR CYKF 110000Z AUTO 01003KT 9SM FEW190 SCT220 SCT240 14/02 A2995 RMK SLP148
19:00
V
15 °C 9 mi - 350° 350° 4 kt METAR CYKF 102300Z AUTO 35004KT 9SM CLR 15/02 A2995 RMK SLP148 DENSITY ALT 1300FT
18:00
V
16 °C 7 mi - 320° 320° 5 kt METAR CYKF 102200Z AUTO 32005KT 7SM CLR 16/02 A2995 RMK SLP148 DENSITY ALT 1400FT
17:00
V
16 °C 9 mi - 320° 320° 3 kt METAR CYKF 102100Z AUTO 32003KT 280V020 9SM CLR 16/03 A2994 RMK SLP144 DENSITY ALT 1500FT
16:00
V
16 °C 9 mi - 310° 310° 3 kt METAR CYKF 102000Z AUTO 31003KT 280V360 9SM CLR 16/03 A2994 RMK SLP143 DENSITY ALT 1400FT
15:00
V
16 °C 9 mi - 310° 310° 8 - 16 kt METAR CYKF 101900Z AUTO 31008G16KT 280V350 9SM CLR 16/04 A2996 RMK SLP149 DENSITY ALT 1400FT
14:00
V
16 °C 9 mi - 310° 310° 8 - 16 kt METAR CYKF 101800Z AUTO 31008G16KT 290V350 9SM CLR 16/03 A2997 RMK SLP151 DENSITY ALT 1400FT
13:00
V
15 °C 9 mi - 300° 300° 11 - 21 kt METAR CYKF 101700Z AUTO 30011G21KT 230V340 9SM CLR 15/02 A2997 RMK SLP153 DENSITY ALT 1300FT
12:00
V
15 °C 9 mi - 290° 290° 9 kt METAR CYKF 101600Z AUTO 29009KT 260V340 9SM CLR 15/03 A2997 RMK SLP152 DENSITY ALT 1300FT
11:00
V
13 °C 9 mi - 290° 290° 10 kt METAR CYKF 101500Z AUTO 29010KT 280V350 9SM CLR 13/04 A2997 RMK SLP151
10:00
V
12 °C 9 mi - 310° 310° 8 kt METAR CYKF 101400Z AUTO 31008KT 9SM CLR 12/04 A2996 RMK SLP149
09:00
V
9 °C 9 mi - 330° 330° 5 kt METAR CYKF 101300Z AUTO 33005KT 280V340 9SM FEW210 09/04 A2994 RMK SLP142
08:00
V
6 °C 9 mi - 300° 300° 6 kt METAR CYKF 101200Z AUTO 30006KT 9SM CLR 06/04 A2994 RMK SLP142
07:00
V
4 °C 9 mi - 290° 290° 4 kt METAR CYKF 101100Z AUTO 29004KT 9SM SCT076 04/03 A2992 RMK SLP136
06:00
V
7 °C 9 mi 21.000 ft 310° 310° 5 kt METAR CYKF 101000Z AUTO 31005KT 9SM BKN210 OVC230 07/04 A2990 RMK SLP127
05:00
V
8 °C 9 mi 19.000 ft 310° 310° 7 kt METAR CYKF 100900Z AUTO 31007KT 9SM OVC190 08/04 A2988 RMK SLP122
04:00
V
8 °C 9 mi 19.000 ft 300° 300° 5 kt METAR CYKF 100800Z AUTO 30005KT 9SM OVC190 08/04 A2988 RMK SLP120
03:00
V
11 °C 9 mi 20.000 ft 310° 310° 8 kt METAR CYKF 100700Z AUTO 31008KT 9SM FEW180 OVC200 11/03 A2989 RMK SLP123
02:00
V
13 °C 9 mi 4.500 ft 260° 260° 8 kt METAR CYKF 100600Z AUTO 26008KT 9SM BKN045 OVC200 13/03 A2989 RMK SLP123
Eine Änderung melden